createdAt,value
2018-07-16T00:02:22.707Z,91.70
2018-07-16T00:04:56.568Z,91.90
2018-07-16T00:07:30.392Z,91.90
2018-07-16T00:10:04.159Z,91.90
2018-07-16T00:12:37.933Z,92.10
2018-07-16T00:15:11.785Z,92.20
2018-07-16T00:17:45.530Z,92.20
2018-07-16T00:20:19.222Z,92.30
2018-07-16T00:22:53.069Z,92.30
2018-07-16T00:25:26.783Z,92.90
2018-07-16T00:28:00.557Z,92.60
2018-07-16T00:30:34.279Z,92.70
2018-07-16T00:33:08.006Z,92.70
2018-07-16T00:35:42.166Z,92.70
2018-07-16T00:38:15.798Z,92.60
2018-07-16T00:40:49.551Z,92.60
2018-07-16T00:43:23.184Z,93.00
2018-07-16T00:45:56.862Z,92.90
2018-07-16T00:48:30.471Z,93.50
2018-07-16T00:51:04.187Z,93.30
2018-07-16T00:53:37.869Z,93.50
2018-07-16T00:56:11.741Z,93.30
2018-07-16T00:58:45.451Z,93.30
2018-07-16T01:01:19.152Z,93.30
2018-07-16T01:03:52.859Z,93.20
2018-07-16T01:06:27.265Z,93.10
2018-07-16T01:09:01.015Z,93.20
2018-07-16T01:11:34.852Z,93.60
2018-07-16T01:14:08.688Z,93.70
2018-07-16T01:16:42.404Z,93.80
2018-07-16T01:19:16.170Z,93.90
2018-07-16T01:21:49.878Z,94.00
2018-07-16T01:24:23.591Z,94.00
2018-07-16T01:26:57.344Z,94.00
2018-07-16T01:29:31.087Z,94.00
2018-07-16T01:32:04.790Z,94.00
2018-07-16T01:34:38.593Z,94.10
2018-07-16T01:37:12.301Z,94.20
2018-07-16T01:39:46.037Z,94.10
2018-07-16T01:42:19.826Z,94.20
2018-07-16T01:44:53.484Z,94.70
2018-07-16T01:47:27.243Z,94.20
2018-07-16T01:50:01.068Z,94.20
2018-07-16T01:52:34.951Z,94.10
2018-07-16T01:55:08.655Z,94.20
2018-07-16T01:57:42.423Z,94.20
2018-07-16T02:00:16.199Z,94.30
2018-07-16T02:02:49.954Z,94.40
2018-07-16T02:05:24.152Z,94.30
2018-07-16T02:07:57.857Z,94.20
2018-07-16T02:10:31.605Z,94.20
2018-07-16T02:13:05.358Z,94.30
2018-07-16T02:15:39.122Z,94.30
2018-07-16T02:18:13.290Z,94.30
2018-07-16T02:20:47.771Z,94.20
2018-07-16T02:23:21.440Z,94.20
2018-07-16T02:25:55.180Z,94.20
2018-07-16T02:28:28.834Z,94.40
2018-07-16T02:31:02.585Z,94.80
2018-07-16T02:33:36.257Z,95.00
2018-07-16T02:36:09.931Z,95.10
2018-07-16T02:38:43.658Z,95.20
2018-07-16T02:41:17.309Z,95.20
2018-07-16T02:43:50.941Z,95.30
2018-07-16T02:46:24.656Z,95.30
2018-07-16T02:48:58.467Z,95.50
2018-07-16T02:51:32.166Z,95.50
2018-07-16T02:54:05.890Z,95.20
2018-07-16T02:56:39.685Z,95.20
2018-07-16T02:59:13.497Z,95.10
2018-07-16T03:01:47.230Z,95.20
2018-07-16T03:04:21.011Z,95.10
2018-07-16T03:06:54.746Z,95.10
2018-07-16T03:09:28.579Z,95.30
2018-07-16T03:12:02.369Z,94.90
2018-07-16T03:14:36.304Z,95.30
2018-07-16T03:17:10.172Z,95.40
2018-07-16T03:19:44.062Z,95.50
2018-07-16T03:22:17.819Z,95.70
2018-07-16T03:24:51.614Z,95.80
2018-07-16T03:27:25.276Z,96.10
2018-07-16T03:29:59.014Z,96.40
2018-07-16T03:32:32.694Z,96.70
2018-07-16T03:35:06.530Z,97.00
2018-07-16T03:37:40.256Z,96.90
2018-07-16T03:40:14.138Z,96.90
2018-07-16T03:42:47.801Z,96.70
2018-07-16T03:45:21.541Z,96.50
2018-07-16T03:47:55.258Z,96.10
2018-07-16T03:50:29.023Z,95.80
2018-07-16T03:53:02.807Z,95.90
2018-07-16T03:55:36.489Z,96.00
2018-07-16T03:58:10.228Z,96.70
2018-07-16T04:00:43.886Z,96.50
2018-07-16T04:03:17.587Z,95.80
2018-07-16T04:05:51.298Z,96.40
2018-07-16T04:08:24.946Z,96.90
2018-07-16T04:10:58.639Z,97.60
2018-07-16T04:13:32.355Z,98.20
2018-07-16T04:16:06.097Z,98.50
2018-07-16T04:18:39.699Z,98.50
2018-07-16T04:21:13.829Z,98.90
2018-07-16T04:23:47.451Z,98.40
2018-07-16T04:26:21.242Z,98.40
2018-07-16T04:28:54.884Z,97.90
2018-07-16T04:31:27.312Z,97.50
2018-07-16T04:33:59.747Z,98.00
2018-07-16T04:36:32.127Z,97.70
2018-07-16T04:39:05.762Z,98.00
2018-07-16T04:41:38.197Z,97.90
2018-07-16T04:44:10.602Z,98.10
2018-07-16T04:46:43.011Z,98.20
2018-07-16T04:49:15.439Z,98.70
2018-07-16T04:51:47.856Z,99.10
2018-07-16T04:54:20.295Z,98.80
2018-07-16T04:56:52.666Z,98.90
2018-07-16T04:59:25.126Z,99.20
2018-07-16T05:01:57.556Z,99.90
2018-07-16T05:04:29.962Z,99.90
2018-07-16T05:07:02.319Z,99.90
2018-07-16T05:12:06.603Z,99.90
2018-07-16T05:14:39.002Z,99.90
2018-07-16T05:17:11.421Z,99.90
2018-07-16T05:19:43.805Z,99.90
2018-07-16T05:22:16.280Z,99.90
2018-07-16T05:24:48.705Z,99.20
2018-07-16T05:27:21.098Z,98.90
2018-07-16T05:29:53.526Z,99.70
2018-07-16T05:32:26.189Z,99.50
2018-07-16T05:34:58.377Z,99.90
2018-07-16T05:37:30.748Z,99.80
2018-07-16T05:40:03.117Z,99.80
2018-07-16T05:42:35.597Z,99.10
2018-07-16T05:45:08.081Z,99.90
2018-07-16T05:47:40.493Z,98.80
2018-07-16T05:50:12.928Z,98.40
2018-07-16T05:52:45.338Z,98.10
2018-07-16T05:55:17.845Z,98.20
2018-07-16T05:57:50.235Z,98.60
2018-07-16T06:00:22.731Z,98.60
2018-07-16T06:02:56.957Z,98.50
2018-07-16T06:05:29.460Z,97.80
2018-07-16T06:08:01.865Z,97.40
2018-07-16T06:10:34.318Z,97.70
2018-07-16T06:13:06.824Z,97.50
2018-07-16T06:15:39.297Z,96.80
2018-07-16T06:18:11.725Z,96.80
2018-07-16T06:20:44.208Z,97.30
2018-07-16T06:23:16.610Z,96.80
2018-07-16T06:25:49.027Z,95.80
2018-07-16T06:28:21.404Z,95.90
2018-07-16T06:30:53.895Z,95.80
2018-07-16T06:33:26.287Z,94.70
2018-07-16T06:35:58.672Z,93.90
2018-07-16T06:38:31.036Z,94.10
2018-07-16T06:41:03.796Z,94.90
2018-07-16T06:43:35.902Z,94.60
2018-07-16T06:46:08.387Z,94.20
2018-07-16T06:48:40.779Z,94.50
2018-07-16T06:51:13.197Z,94.10
2018-07-16T06:53:45.578Z,92.80
2018-07-16T06:56:18.017Z,93.10
2018-07-16T06:58:50.426Z,92.60
2018-07-16T07:01:22.915Z,92.00
2018-07-16T07:03:55.305Z,91.60
2018-07-16T07:06:27.783Z,91.40
2018-07-16T07:09:00.318Z,90.90
2018-07-16T07:11:32.705Z,91.30
2018-07-16T07:14:05.173Z,90.60
2018-07-16T07:16:37.551Z,88.70
2018-07-16T07:19:09.964Z,90.00
2018-07-16T07:21:42.426Z,89.10
2018-07-16T07:24:14.825Z,90.10
2018-07-16T07:26:47.241Z,85.70
2018-07-16T07:29:19.664Z,84.90
2018-07-16T07:31:52.118Z,82.90
2018-07-16T07:34:24.546Z,81.70
2018-07-16T07:36:56.941Z,80.60
2018-07-16T07:39:29.295Z,79.40
2018-07-16T07:42:01.827Z,78.50
2018-07-16T07:44:34.231Z,78.60
2018-07-16T07:47:06.643Z,78.00
2018-07-16T07:49:39.090Z,78.80
2018-07-16T07:52:11.461Z,78.50
2018-07-16T07:54:43.966Z,77.50
2018-07-16T07:57:17.002Z,76.80
2018-07-16T07:59:49.451Z,77.50
2018-07-16T08:02:22.119Z,75.00
2018-07-16T08:04:54.503Z,76.90
2018-07-16T08:07:27.024Z,77.30
2018-07-16T08:09:59.400Z,76.40
2018-07-16T08:12:31.884Z,75.40
2018-07-16T08:15:04.327Z,74.90
2018-07-16T08:17:36.847Z,73.20
2018-07-16T08:20:09.776Z,72.70
2018-07-16T08:22:42.271Z,73.10
2018-07-16T08:25:14.698Z,75.80
2018-07-16T08:27:47.168Z,74.00
2018-07-16T08:30:19.623Z,75.30
2018-07-16T08:32:52.101Z,77.20
2018-07-16T08:35:24.519Z,76.00
2018-07-16T08:37:57.015Z,75.30
2018-07-16T08:40:29.435Z,75.00
2018-07-16T08:43:01.896Z,73.30
2018-07-16T08:45:34.297Z,72.80
2018-07-16T08:48:06.723Z,71.00
2018-07-16T08:50:39.130Z,70.50
2018-07-16T08:53:11.551Z,69.40
2018-07-16T08:55:43.951Z,69.80
2018-07-16T08:58:16.343Z,68.60
2018-07-16T09:00:48.765Z,68.40
2018-07-16T09:03:21.191Z,68.70
2018-07-16T09:05:58.484Z,67.90
2018-07-16T09:08:30.915Z,66.90
2018-07-16T09:11:03.349Z,67.60
2018-07-16T09:13:35.825Z,68.80
2018-07-16T09:16:08.201Z,68.10
2018-07-16T09:18:40.585Z,68.20
2018-07-16T09:21:12.947Z,67.20
2018-07-16T09:23:45.361Z,67.50
2018-07-16T09:26:17.793Z,68.20
2018-07-16T09:28:50.201Z,65.40
2018-07-16T09:31:22.687Z,64.90
2018-07-16T09:33:55.140Z,65.40
2018-07-16T09:36:27.553Z,64.80
2018-07-16T09:39:00.079Z,65.00
2018-07-16T09:41:32.471Z,64.90
2018-07-16T09:44:05.000Z,65.70
2018-07-16T09:46:37.371Z,65.70
2018-07-16T09:49:09.773Z,65.80
2018-07-16T09:51:42.253Z,65.20
2018-07-16T09:54:14.621Z,65.50
2018-07-16T09:56:47.009Z,65.60
2018-07-16T09:59:20.671Z,63.70
2018-07-16T10:01:59.442Z,64.50
2018-07-16T10:04:33.883Z,63.40
2018-07-16T10:07:07.623Z,63.90
2018-07-16T10:09:41.310Z,62.10
2018-07-16T10:12:14.510Z,58.70
2018-07-16T10:14:48.802Z,59.30
2018-07-16T10:17:22.536Z,60.10
2018-07-16T10:19:56.279Z,59.40
2018-07-16T10:22:29.924Z,60.00
2018-07-16T10:25:02.310Z,59.40
2018-07-16T10:27:34.847Z,59.50
2018-07-16T10:30:07.313Z,59.20
2018-07-16T10:32:39.750Z,58.70
2018-07-16T10:35:12.175Z,59.30
2018-07-16T10:37:44.543Z,58.60
2018-07-16T10:40:16.968Z,57.20
2018-07-16T10:42:49.416Z,57.50
2018-07-16T10:45:21.809Z,59.20
2018-07-16T10:47:54.215Z,56.50
2018-07-16T10:50:26.601Z,57.70
2018-07-16T10:52:59.052Z,56.80
2018-07-16T10:55:31.586Z,57.40
2018-07-16T10:58:06.039Z,55.90
2018-07-16T11:00:40.432Z,54.40
2018-07-16T11:03:14.808Z,55.10
2018-07-16T11:05:47.244Z,54.40
2018-07-16T11:08:19.642Z,54.20
2018-07-16T11:10:53.234Z,55.00
2018-07-16T11:13:27.363Z,55.60
2018-07-16T11:15:59.829Z,56.70
2018-07-16T11:18:32.253Z,56.90
2018-07-16T11:21:04.647Z,56.80
2018-07-16T11:23:37.118Z,56.80
2018-07-16T11:26:09.555Z,55.70
2018-07-16T11:28:41.969Z,54.80
2018-07-16T11:31:14.382Z,55.60
2018-07-16T11:33:46.953Z,54.70
2018-07-16T11:36:21.628Z,53.80
2018-07-16T11:38:54.072Z,53.50
2018-07-16T11:41:26.444Z,53.80
2018-07-16T11:43:58.838Z,53.60
2018-07-16T11:46:31.234Z,53.80
2018-07-16T11:49:03.649Z,52.80
2018-07-16T11:51:36.025Z,51.60
2018-07-16T11:54:08.463Z,51.70
2018-07-16T11:56:40.887Z,51.90
2018-07-16T11:59:13.317Z,50.90
2018-07-16T12:01:45.800Z,49.80
2018-07-16T12:04:18.247Z,49.60
2018-07-16T12:06:50.660Z,49.80
2018-07-16T12:09:23.124Z,48.00
2018-07-16T12:11:55.543Z,47.80
2018-07-16T12:14:27.985Z,47.70
2018-07-16T12:17:00.687Z,47.70
2018-07-16T12:19:33.110Z,48.20
2018-07-16T12:22:05.494Z,49.20
2018-07-16T12:24:37.903Z,47.40
2018-07-16T12:27:10.295Z,48.00
2018-07-16T12:29:44.977Z,47.60
2018-07-16T12:32:17.484Z,48.20
2018-07-16T12:34:50.085Z,47.90
2018-07-16T12:37:23.852Z,48.30
2018-07-16T12:39:56.257Z,48.60
2018-07-16T12:42:28.653Z,47.90
2018-07-16T12:45:01.021Z,48.00
2018-07-16T12:47:33.418Z,47.60
2018-07-16T12:50:06.025Z,47.10
2018-07-16T12:52:38.445Z,48.40
2018-07-16T12:55:10.835Z,49.00
2018-07-16T12:57:43.266Z,47.20
2018-07-16T13:00:15.680Z,48.70
2018-07-16T13:02:48.029Z,48.50
2018-07-16T13:05:20.436Z,48.50
2018-07-16T13:07:52.894Z,47.20
2018-07-16T13:10:25.388Z,46.60
2018-07-16T13:12:57.984Z,47.10
2018-07-16T13:15:30.412Z,46.60
2018-07-16T13:18:02.783Z,45.40
2018-07-16T13:20:35.208Z,45.70
2018-07-16T13:23:07.621Z,45.70
2018-07-16T13:25:40.052Z,47.30
2018-07-16T13:28:12.447Z,47.30
2018-07-16T13:30:44.893Z,48.10
2018-07-16T13:33:17.285Z,48.50
2018-07-16T13:35:49.749Z,48.70
2018-07-16T13:38:22.152Z,47.20
2018-07-16T13:40:54.546Z,46.00
2018-07-16T13:43:26.945Z,45.30
2018-07-16T13:45:59.370Z,46.00
2018-07-16T13:48:31.768Z,45.70
2018-07-16T13:51:04.168Z,45.00
2018-07-16T13:53:36.552Z,45.50
2018-07-16T13:56:08.993Z,45.60
2018-07-16T13:58:41.368Z,46.40
2018-07-16T14:01:14.686Z,46.60
2018-07-16T14:03:47.064Z,46.40
2018-07-16T14:06:19.444Z,46.10
2018-07-16T14:11:23.684Z,44.80
2018-07-16T14:13:56.025Z,44.50
2018-07-16T14:16:28.381Z,44.20
2018-07-16T14:19:00.737Z,44.00
2018-07-16T14:21:33.136Z,44.20
2018-07-16T14:24:05.504Z,42.80
2018-07-16T14:26:37.860Z,44.20
2018-07-16T14:29:10.200Z,43.90
2018-07-16T14:31:42.537Z,45.80
2018-07-16T14:34:14.999Z,44.90
2018-07-16T14:36:47.344Z,43.90
2018-07-16T14:39:19.727Z,42.60
2018-07-16T14:41:52.128Z,41.60
2018-07-16T14:44:24.541Z,40.70
2018-07-16T14:46:56.892Z,40.20
2018-07-16T14:49:29.272Z,39.60
2018-07-16T14:52:01.664Z,38.80
2018-07-16T14:54:34.008Z,39.00
2018-07-16T14:57:06.444Z,37.60
2018-07-16T14:59:38.780Z,37.60
2018-07-16T15:02:11.325Z,37.90
2018-07-16T15:04:43.727Z,37.70
2018-07-16T15:07:16.334Z,38.10
2018-07-16T15:09:48.778Z,39.20
2018-07-16T15:12:21.182Z,39.10
2018-07-16T15:14:53.602Z,39.60
2018-07-16T15:17:26.024Z,39.00
2018-07-16T15:19:58.630Z,39.20
2018-07-16T15:22:30.854Z,40.30
2018-07-16T15:25:03.243Z,40.10
2018-07-16T15:27:35.580Z,40.60
2018-07-16T15:30:08.307Z,39.70
2018-07-16T15:32:40.709Z,39.20
2018-07-16T15:35:13.054Z,38.70
2018-07-16T15:37:45.510Z,38.70
2018-07-16T15:40:17.874Z,38.80
2018-07-16T15:42:50.374Z,39.30
2018-07-16T15:45:23.005Z,38.40
2018-07-16T15:47:55.520Z,39.20
2018-07-16T15:50:27.917Z,38.70
2018-07-16T15:53:00.356Z,39.20
2018-07-16T15:55:32.732Z,38.80
2018-07-16T15:58:05.137Z,37.20
2018-07-16T16:00:37.501Z,36.70
2018-07-16T16:03:09.935Z,36.20
2018-07-16T16:05:42.384Z,35.80
2018-07-16T16:08:14.763Z,35.40
2018-07-16T16:10:47.140Z,35.70
2018-07-16T16:13:19.511Z,36.40
2018-07-16T16:15:51.941Z,36.10
2018-07-16T16:18:24.280Z,36.10
2018-07-16T16:20:56.689Z,36.60
2018-07-16T16:23:29.064Z,36.80
2018-07-16T16:26:01.447Z,36.70
2018-07-16T16:28:33.820Z,36.60
2018-07-16T16:31:06.258Z,37.00
2018-07-16T16:33:38.677Z,37.30
2018-07-16T16:36:11.090Z,37.60
2018-07-16T16:38:43.665Z,38.50
2018-07-16T16:41:16.109Z,37.90
2018-07-16T16:43:49.154Z,38.30
2018-07-16T16:46:21.921Z,37.90
2018-07-16T16:48:55.180Z,37.60
2018-07-16T16:51:27.666Z,37.50
2018-07-16T16:54:00.073Z,37.70
2018-07-16T16:56:32.488Z,38.30
2018-07-16T16:59:04.843Z,37.80
2018-07-16T17:01:37.383Z,37.50
2018-07-16T17:04:09.915Z,37.70
2018-07-16T17:06:42.402Z,36.70
2018-07-16T17:09:14.785Z,37.20
2018-07-16T17:11:47.244Z,37.40
2018-07-16T17:14:19.622Z,37.30
2018-07-16T17:16:52.119Z,37.50
2018-07-16T17:19:24.476Z,37.70
2018-07-16T17:21:56.897Z,38.80
2018-07-16T17:24:29.337Z,38.50
2018-07-16T17:27:01.782Z,38.50
2018-07-16T17:29:34.197Z,38.70
2018-07-16T17:32:06.711Z,38.50
2018-07-16T17:34:39.092Z,40.00
2018-07-16T17:37:11.522Z,39.70
2018-07-16T17:39:43.919Z,40.50
2018-07-16T17:44:48.142Z,40.70
2018-07-16T17:47:20.540Z,40.60
2018-07-16T17:49:52.900Z,41.20
2018-07-16T17:52:25.361Z,41.50
2018-07-16T17:54:57.756Z,41.80
2018-07-16T17:57:30.240Z,42.00
2018-07-16T18:00:02.635Z,42.70
2018-07-16T18:02:35.020Z,43.00
2018-07-16T18:05:07.423Z,42.90
2018-07-16T18:07:39.862Z,43.10
2018-07-16T18:10:12.251Z,44.50
2018-07-16T18:12:44.621Z,44.50
2018-07-16T18:15:17.001Z,44.40
2018-07-16T18:17:49.486Z,44.30
2018-07-16T18:20:21.847Z,44.30
2018-07-16T18:22:54.303Z,44.80
2018-07-16T18:25:26.691Z,45.00
2018-07-16T18:27:59.080Z,45.20
2018-07-16T18:30:31.440Z,45.80
2018-07-16T18:33:03.892Z,46.00
2018-07-16T18:35:36.387Z,46.20
2018-07-16T18:38:08.767Z,47.10
2018-07-16T18:40:41.116Z,46.80
2018-07-16T18:43:13.529Z,47.80
2018-07-16T18:45:45.938Z,49.30
2018-07-16T18:48:18.533Z,49.00
2018-07-16T18:50:50.893Z,50.20
2018-07-16T18:53:23.389Z,50.00
2018-07-16T18:55:55.720Z,50.60
2018-07-16T18:58:28.145Z,50.50
2018-07-16T19:01:00.606Z,51.20
2018-07-16T19:03:33.078Z,52.00
2018-07-16T19:06:05.520Z,51.90
2018-07-16T19:08:37.935Z,52.70
2018-07-16T19:11:10.378Z,52.40
2018-07-16T19:13:42.831Z,52.80
2018-07-16T19:16:15.244Z,52.70
2018-07-16T19:18:47.648Z,53.40
2018-07-16T19:21:20.032Z,54.20
2018-07-16T19:23:52.445Z,54.80
2018-07-16T19:26:24.869Z,54.30
2018-07-16T19:28:57.432Z,54.60
2018-07-16T19:31:29.832Z,54.70
2018-07-16T19:34:02.218Z,55.10
2018-07-16T19:36:34.616Z,56.00
2018-07-16T19:39:10.385Z,56.90
2018-07-16T19:41:42.659Z,57.10
2018-07-16T19:44:15.036Z,57.30
2018-07-16T19:46:47.405Z,57.00
2018-07-16T19:49:19.836Z,57.40
2018-07-16T19:51:52.308Z,57.90
2018-07-16T19:54:24.700Z,58.10
2018-07-16T19:56:57.137Z,58.80
2018-07-16T20:02:01.362Z,58.00
2018-07-16T20:04:33.800Z,58.50
2018-07-16T20:07:06.239Z,58.40
2018-07-16T20:09:38.730Z,58.70
2018-07-16T20:12:16.321Z,58.70
2018-07-16T20:14:48.743Z,58.90
2018-07-16T20:17:22.924Z,59.10
2018-07-16T20:19:56.833Z,59.60
2018-07-16T20:22:29.758Z,60.00
2018-07-16T20:27:35.317Z,60.30
2018-07-16T20:30:11.714Z,60.70
2018-07-16T20:32:46.424Z,60.60
2018-07-16T20:35:19.297Z,61.10
2018-07-16T20:37:52.036Z,61.10
2018-07-16T20:40:25.348Z,61.20
2018-07-16T20:42:58.244Z,61.20
2018-07-16T20:45:31.056Z,61.80
2018-07-16T20:48:03.788Z,61.70
2018-07-16T20:50:36.388Z,61.40
2018-07-16T20:53:08.980Z,61.90
2018-07-16T20:55:41.580Z,62.10
2018-07-16T20:58:15.192Z,62.20
2018-07-16T21:00:49.006Z,63.00
2018-07-16T21:03:25.850Z,63.60
2018-07-16T21:06:02.420Z,64.20
2018-07-16T21:08:38.253Z,63.60
2018-07-16T21:11:17.166Z,63.20
2018-07-16T21:13:51.678Z,63.40
2018-07-16T21:16:26.084Z,63.60
2018-07-16T21:18:59.751Z,64.10
2018-07-16T21:21:33.538Z,66.80
2018-07-16T21:24:07.316Z,65.00
2018-07-16T21:26:41.060Z,65.00
2018-07-16T21:29:14.742Z,66.00
2018-07-16T21:34:21.752Z,66.90
2018-07-16T21:36:57.798Z,67.30
2018-07-16T21:39:32.402Z,67.50
2018-07-16T21:42:06.200Z,67.50
2018-07-16T21:44:40.067Z,67.90
2018-07-16T21:47:13.888Z,67.80
2018-07-16T21:49:47.905Z,68.10
2018-07-16T21:52:22.738Z,68.50
2018-07-16T21:54:56.714Z,69.00
2018-07-16T21:57:30.462Z,69.80
2018-07-16T22:00:04.410Z,70.20
2018-07-16T22:02:38.155Z,69.90
2018-07-16T22:05:11.944Z,69.80
2018-07-16T22:07:45.651Z,70.30
2018-07-16T22:10:19.427Z,70.50
2018-07-16T22:12:53.541Z,70.70
2018-07-16T22:15:29.228Z,71.20
2018-07-16T22:18:03.038Z,71.40
2018-07-16T22:20:36.936Z,72.00
2018-07-16T22:23:11.148Z,72.40
2018-07-16T22:25:44.970Z,72.70
2018-07-16T22:28:19.756Z,73.00
2018-07-16T22:30:53.761Z,73.30
2018-07-16T22:33:27.543Z,73.50
2018-07-16T22:36:01.808Z,73.50
2018-07-16T22:38:35.770Z,73.80
2018-07-16T22:41:10.125Z,74.00
2018-07-16T22:43:44.334Z,74.60
2018-07-16T22:46:18.974Z,75.00
2018-07-16T22:48:53.024Z,75.50
2018-07-16T22:51:28.032Z,75.70
2018-07-16T22:54:02.195Z,76.00
2018-07-16T22:56:36.437Z,76.10
2018-07-16T22:59:10.684Z,76.40
2018-07-16T23:01:44.751Z,76.90
2018-07-16T23:04:19.274Z,77.10
2018-07-16T23:06:56.680Z,77.50
2018-07-16T23:09:34.643Z,77.40
2018-07-16T23:12:12.605Z,77.80
2018-07-16T23:14:50.156Z,78.50
2018-07-16T23:17:27.148Z,78.60
2018-07-16T23:20:01.544Z,78.70
2018-07-16T23:22:44.956Z,79.10
2018-07-16T23:25:19.221Z,79.20
2018-07-16T23:27:54.877Z,79.80
2018-07-16T23:30:29.001Z,80.00
2018-07-16T23:33:03.273Z,80.50
2018-07-16T23:35:37.402Z,80.90
2018-07-16T23:38:12.691Z,80.90
2018-07-16T23:40:46.911Z,81.10
2018-07-16T23:43:20.714Z,81.30
2018-07-16T23:45:54.948Z,82.30
2018-07-16T23:48:29.052Z,82.40
2018-07-16T23:51:03.905Z,82.70
2018-07-16T23:53:37.965Z,82.90
2018-07-16T23:56:11.905Z,83.20
2018-07-16T23:58:46.002Z,83.20
